createdAt,value
2016-11-17T00:00:49.729Z,9.64
2016-11-17T00:01:49.087Z,9.64
2016-11-17T00:02:49.655Z,9.64
2016-11-17T00:03:49.615Z,9.57
2016-11-17T00:04:49.578Z,9.56
2016-11-17T00:05:48.942Z,9.53
2016-11-17T00:06:49.196Z,9.57
2016-11-17T00:07:49.482Z,9.56
2016-11-17T00:08:49.123Z,9.56
2016-11-17T00:09:49.084Z,9.57
2016-11-17T00:10:49.051Z,9.54
2016-11-17T00:11:49.313Z,9.53
2016-11-17T00:12:48.978Z,9.51
2016-11-17T00:13:49.236Z,9.46
2016-11-17T00:14:48.596Z,9.4
2016-11-17T00:15:48.861Z,9.47
2016-11-17T00:16:49.119Z,9.47
2016-11-17T00:17:48.784Z,9.5
2016-11-17T00:18:48.748Z,9.39
2016-11-17T00:19:48.405Z,9.4
2016-11-17T00:20:48.979Z,9.35
2016-11-17T00:21:48.936Z,9.46
2016-11-17T00:22:48.896Z,9.48
2016-11-17T00:23:48.861Z,9.47
2016-11-17T00:24:48.822Z,9.43
2016-11-17T00:25:48.488Z,9.4
2016-11-17T00:26:48.758Z,9.47
2016-11-17T00:27:48.414Z,9.4
2016-11-17T00:28:48.668Z,9.48
2016-11-17T00:29:48.329Z,9.4
2016-11-17T00:30:48.590Z,9.42
2016-11-17T00:31:48.254Z,9.46
2016-11-17T00:32:48.517Z,9.5
2016-11-17T00:33:48.484Z,9.42
2016-11-17T00:34:48.144Z,9.42
2016-11-17T00:35:48.099Z,9.46
2016-11-17T00:36:48.067Z,9.42
2016-11-17T00:37:48.328Z,9.46
2016-11-17T00:38:48.289Z,9.46
2016-11-17T00:39:47.958Z,9.46
2016-11-17T00:40:48.218Z,9.4
2016-11-17T00:41:48.177Z,9.48
2016-11-17T00:42:47.834Z,9.46
2016-11-17T00:43:48.101Z,9.43
2016-11-17T00:44:47.765Z,9.46
2016-11-17T00:45:47.725Z,9.51
2016-11-17T00:46:47.688Z,9.53
2016-11-17T00:47:47.956Z,9.53
2016-11-17T00:48:47.613Z,9.56
2016-11-17T00:49:47.873Z,9.46
2016-11-17T00:50:47.535Z,9.48
2016-11-17T00:51:47.800Z,9.54
2016-11-17T00:52:47.760Z,9.47
2016-11-17T00:53:47.427Z,9.54
2016-11-17T00:54:47.686Z,9.53
2016-11-17T00:55:47.646Z,9.47
2016-11-17T00:56:47.611Z,9.56
2016-11-17T00:57:47.273Z,9.48
2016-11-17T00:58:47.539Z,9.51
2016-11-17T00:59:47.497Z,9.54
2016-11-17T01:00:47.153Z,9.5
2016-11-17T01:01:47.116Z,9.53
2016-11-17T01:02:47.379Z,9.54
2016-11-17T01:03:47.054Z,9.54
2016-11-17T01:04:47.307Z,9.54
2016-11-17T01:05:46.974Z,9.53
2016-11-17T01:06:46.630Z,9.5
2016-11-17T01:07:47.190Z,9.57
2016-11-17T01:08:47.157Z,9.53
2016-11-17T01:09:47.121Z,9.56
2016-11-17T01:10:47.079Z,9.57
2016-11-17T01:11:46.740Z,9.57
2016-11-17T01:12:47.004Z,9.57
2016-11-17T01:13:46.965Z,9.58
2016-11-17T01:14:46.625Z,9.54
2016-11-17T01:15:46.588Z,9.51
2016-11-17T01:16:46.853Z,9.54
2016-11-17T01:17:46.811Z,9.53
2016-11-17T01:18:46.776Z,9.53
2016-11-17T01:19:46.738Z,9.51
2016-11-17T01:20:46.397Z,9.47
2016-11-17T01:21:46.662Z,9.46
2016-11-17T01:22:46.323Z,9.38
2016-11-17T01:23:46.587Z,9.4
2016-11-17T01:24:45.940Z,9.46
2016-11-17T01:25:46.209Z,9.5
2016-11-17T01:26:46.470Z,9.4
2016-11-17T01:27:46.133Z,9.47
2016-11-17T01:28:46.099Z,9.4
2016-11-17T01:29:46.358Z,9.4
2016-11-17T01:30:46.023Z,9.47
2016-11-17T01:31:45.999Z,9.46
2016-11-17T01:32:45.942Z,9.33
2016-11-17T01:33:45.903Z,9.4
2016-11-17T01:34:46.172Z,9.36
2016-11-17T01:35:46.129Z,9.31
2016-11-17T01:36:46.096Z,9.28
2016-11-17T01:37:46.055Z,9.38
2016-11-17T01:38:46.018Z,9.33
2016-11-17T01:39:45.982Z,9.28
2016-11-17T01:40:45.943Z,9.36
2016-11-17T01:41:45.608Z,9.29
2016-11-17T01:42:45.562Z,9.32
2016-11-17T01:43:45.828Z,9.32
2016-11-17T01:44:45.796Z,9.29
2016-11-17T01:45:45.445Z,9.26
2016-11-17T01:46:45.412Z,9.32
2016-11-17T01:47:45.370Z,9.29
2016-11-17T01:48:45.639Z,9.26
2016-11-17T01:49:45.292Z,9.29
2016-11-17T01:50:45.559Z,9.35
2016-11-17T01:51:45.521Z,9.35
2016-11-17T01:52:45.184Z,9.31
2016-11-17T01:53:45.142Z,9.31
2016-11-17T01:54:45.415Z,9.35
2016-11-17T01:55:45.373Z,9.36
2016-11-17T01:56:45.336Z,9.36
2016-11-17T01:57:45.290Z,9.38
2016-11-17T01:58:45.258Z,9.35
2016-11-17T01:59:45.217Z,9.36
2016-11-17T02:00:45.188Z,9.31
2016-11-17T02:01:44.836Z,9.36
2016-11-17T02:02:45.106Z,9.43
2016-11-17T02:03:44.779Z,9.43
2016-11-17T02:04:45.028Z,9.32
2016-11-17T02:05:44.987Z,9.43
2016-11-17T02:06:44.647Z,9.39
2016-11-17T02:07:44.308Z,9.39
2016-11-17T02:08:44.873Z,9.43
2016-11-17T02:09:44.571Z,9.43
2016-11-17T02:10:44.798Z,9.42
2016-11-17T02:11:44.778Z,9.46
2016-11-17T02:12:44.728Z,9.38
2016-11-17T02:13:44.381Z,9.4
2016-11-17T02:14:44.649Z,9.48
2016-11-17T02:15:44.306Z,9.39
2016-11-17T02:16:44.571Z,9.43
2016-11-17T02:17:44.231Z,9.4
2016-11-17T02:18:44.493Z,9.38
2016-11-17T02:19:44.458Z,9.47
2016-11-17T02:20:44.419Z,9.48
2016-11-17T02:21:44.380Z,9.36
2016-11-17T02:22:44.338Z,9.42
2016-11-17T02:23:44.302Z,9.4
2016-11-17T02:24:44.265Z,9.47
2016-11-17T02:25:43.928Z,9.4
2016-11-17T02:26:44.187Z,9.47
2016-11-17T02:27:44.146Z,9.47
2016-11-17T02:28:43.814Z,9.4
2016-11-17T02:29:44.071Z,9.42
2016-11-17T02:30:44.041Z,9.42
2016-11-17T02:31:44.001Z,9.48
2016-11-17T02:32:43.960Z,9.42
2016-11-17T02:33:43.919Z,9.53
2016-11-17T02:34:43.578Z,9.56
2016-11-17T02:35:43.547Z,9.42
2016-11-17T02:36:43.507Z,9.53
2016-11-17T02:37:43.768Z,9.42
2016-11-17T02:38:43.732Z,9.46
2016-11-17T02:39:43.692Z,9.5
2016-11-17T02:40:43.655Z,9.4
2016-11-17T02:41:43.314Z,9.54
2016-11-17T02:42:43.276Z,9.5
2016-11-17T02:43:43.542Z,9.48
2016-11-17T02:44:43.504Z,9.48
2016-11-17T02:45:43.473Z,9.51
2016-11-17T02:46:43.431Z,9.4
2016-11-17T02:47:43.087Z,9.47
2016-11-17T02:48:43.358Z,9.51
2016-11-17T02:49:43.318Z,9.46
2016-11-17T02:50:43.281Z,9.4
2016-11-17T02:51:43.239Z,9.42
2016-11-17T02:52:42.898Z,9.51
2016-11-17T02:53:42.862Z,9.47
2016-11-17T02:54:42.824Z,9.46
2016-11-17T02:55:43.085Z,9.47
2016-11-17T02:56:43.050Z,9.47
2016-11-17T02:57:42.711Z,9.4
2016-11-17T02:58:42.972Z,9.4
2016-11-17T02:59:42.930Z,9.39
2016-11-17T03:00:42.597Z,9.43
2016-11-17T03:01:42.560Z,9.47
2016-11-17T03:02:42.515Z,9.46
2016-11-17T03:03:42.779Z,9.43
2016-11-17T03:04:42.744Z,9.39
2016-11-17T03:05:42.403Z,9.43
2016-11-17T03:06:42.668Z,9.43
2016-11-17T03:07:42.631Z,9.43
2016-11-17T03:08:42.290Z,9.42
2016-11-17T03:09:42.554Z,9.33
2016-11-17T03:10:42.515Z,9.31
2016-11-17T03:11:42.479Z,9.38
2016-11-17T03:12:42.142Z,9.29
2016-11-17T03:13:42.416Z,9.28
2016-11-17T03:14:42.365Z,9.31
2016-11-17T03:15:42.327Z,9.31
2016-11-17T03:16:41.688Z,9.32
2016-11-17T03:17:41.950Z,9.31
2016-11-17T03:18:42.213Z,9.33
2016-11-17T03:19:42.174Z,9.29
2016-11-17T03:20:42.139Z,9.31
2016-11-17T03:21:41.797Z,9.35
2016-11-17T03:22:41.756Z,9.29
2016-11-17T03:23:42.023Z,9.35
2016-11-17T03:24:41.995Z,9.29
2016-11-17T03:25:41.947Z,9.28
2016-11-17T03:26:41.917Z,9.32
2016-11-17T03:27:41.872Z,9.36
2016-11-17T03:28:41.536Z,9.28
2016-11-17T03:29:41.495Z,9.28
2016-11-17T03:30:41.766Z,9.28
2016-11-17T03:31:41.717Z,9.31
2016-11-17T03:32:41.379Z,9.35
2016-11-17T03:33:41.644Z,9.33
2016-11-17T03:34:41.309Z,9.29
2016-11-17T03:35:41.562Z,9.24
2016-11-17T03:36:41.526Z,9.28
2016-11-17T03:37:41.490Z,9.28
2016-11-17T03:38:41.454Z,9.26
2016-11-17T03:39:41.114Z,9.26
2016-11-17T03:40:41.378Z,9.32
2016-11-17T03:41:41.339Z,9.28
2016-11-17T03:42:41.303Z,9.26
2016-11-17T03:43:40.663Z,9.23
2016-11-17T03:44:40.923Z,9.33
2016-11-17T03:45:41.192Z,9.23
2016-11-17T03:46:41.158Z,9.28
2016-11-17T03:47:41.114Z,9.23
2016-11-17T03:48:40.475Z,9.28
2016-11-17T03:49:40.734Z,9.26
2016-11-17T03:50:41.003Z,9.29
2016-11-17T03:51:40.658Z,9.33
2016-11-17T03:52:40.621Z,9.33
2016-11-17T03:53:40.884Z,9.24
2016-11-17T03:54:40.243Z,9.28
2016-11-17T03:55:40.808Z,9.28
2016-11-17T03:56:40.470Z,9.2
2016-11-17T03:57:40.733Z,9.26
2016-11-17T03:58:40.696Z,9.2
2016-11-17T03:59:40.656Z,9.2
2016-11-17T04:00:40.616Z,9.23
2016-11-17T04:01:39.979Z,9.2
2016-11-17T04:02:40.547Z,9.29
2016-11-17T04:03:40.507Z,9.2
2016-11-17T04:04:40.169Z,9.17
2016-11-17T04:05:40.426Z,9.23
2016-11-17T04:06:40.392Z,9.23
2016-11-17T04:07:40.054Z,9.23
2016-11-17T04:08:40.318Z,9.29
2016-11-17T04:09:40.285Z,9.24
2016-11-17T04:10:40.239Z,9.29
2016-11-17T04:11:40.201Z,9.29
2016-11-17T04:12:39.861Z,9.31
2016-11-17T04:13:40.127Z,9.2
2016-11-17T04:14:40.092Z,9.29
2016-11-17T04:15:39.749Z,9.28
2016-11-17T04:16:39.713Z,9.21
2016-11-17T04:17:39.374Z,9.23
2016-11-17T04:18:39.936Z,9.29
2016-11-17T04:19:39.899Z,9.28
2016-11-17T04:20:39.864Z,9.24
2016-11-17T04:21:39.519Z,9.35
2016-11-17T04:22:39.785Z,9.26
2016-11-17T04:23:39.749Z,9.32
2016-11-17T04:24:39.107Z,9.26
2016-11-17T04:25:39.370Z,9.33
2016-11-17T04:26:39.034Z,9.26
2016-11-17T04:27:39.599Z,9.29
2016-11-17T04:28:39.562Z,9.32
2016-11-17T04:29:39.521Z,9.28
2016-11-17T04:30:39.180Z,9.33
2016-11-17T04:31:39.143Z,9.31
2016-11-17T04:32:39.411Z,9.28
2016-11-17T04:33:38.760Z,9.28
2016-11-17T04:34:39.033Z,9.32
2016-11-17T04:35:38.990Z,9.33
2016-11-17T04:36:38.650Z,9.32
2016-11-17T04:37:39.217Z,9.31
2016-11-17T04:38:39.195Z,9.28
2016-11-17T04:39:39.144Z,9.29
2016-11-17T04:40:39.104Z,9.23
2016-11-17T04:41:38.770Z,9.24
2016-11-17T04:42:39.026Z,9.35
2016-11-17T04:43:38.990Z,9.35
2016-11-17T04:44:38.951Z,9.31
2016-11-17T04:45:38.612Z,9.31
2016-11-17T04:46:38.877Z,9.31
2016-11-17T04:47:38.842Z,9.31
2016-11-17T04:48:38.199Z,9.31
2016-11-17T04:49:38.466Z,9.28
2016-11-17T04:50:38.421Z,9.28
2016-11-17T04:51:38.683Z,9.24
2016-11-17T04:52:38.650Z,9.33
2016-11-17T04:53:38.607Z,9.28
2016-11-17T04:54:38.277Z,9.32
2016-11-17T04:55:38.535Z,9.38
2016-11-17T04:56:38.200Z,9.35
2016-11-17T04:57:38.158Z,9.31
2016-11-17T04:58:38.123Z,9.28
2016-11-17T04:59:38.381Z,9.32
2016-11-17T05:00:38.344Z,9.33
2016-11-17T05:01:38.307Z,9.33
2016-11-17T05:02:37.669Z,9.24
2016-11-17T05:03:38.231Z,9.28
2016-11-17T05:04:37.895Z,9.28
2016-11-17T05:05:37.862Z,9.33
2016-11-17T05:06:38.119Z,9.31
2016-11-17T05:07:37.779Z,9.35
2016-11-17T05:08:38.043Z,9.28
2016-11-17T05:09:38.002Z,9.38
2016-11-17T05:10:37.682Z,9.32
2016-11-17T05:11:37.628Z,9.31
2016-11-17T05:12:37.892Z,9.33
2016-11-17T05:13:37.852Z,9.26
2016-11-17T05:14:37.813Z,9.35
2016-11-17T05:15:37.777Z,9.32
2016-11-17T05:16:37.742Z,9.32
2016-11-17T05:17:37.724Z,9.21
2016-11-17T05:18:37.667Z,9.26
2016-11-17T05:19:37.332Z,9.28
2016-11-17T05:20:37.287Z,9.23
2016-11-17T05:21:37.247Z,9.33
2016-11-17T05:22:36.908Z,9.23
2016-11-17T05:23:37.473Z,9.28
2016-11-17T05:24:37.435Z,9.26
2016-11-17T05:25:37.094Z,9.23
2016-11-17T05:26:37.096Z,9.24
2016-11-17T05:27:37.324Z,9.26
2016-11-17T05:28:36.678Z,9.24
2016-11-17T05:29:37.246Z,9.2
2016-11-17T05:30:36.904Z,9.2
2016-11-17T05:31:37.171Z,9.21
2016-11-17T05:32:37.132Z,9.23
2016-11-17T05:33:37.096Z,9.23
2016-11-17T05:34:36.752Z,9.2
2016-11-17T05:35:37.023Z,9.11
2016-11-17T05:36:36.981Z,9.1
2016-11-17T05:37:36.336Z,9.2
2016-11-17T05:38:36.601Z,9.11
2016-11-17T05:39:36.867Z,9.17
2016-11-17T05:40:36.831Z,9.2
2016-11-17T05:41:36.800Z,9.17
2016-11-17T05:42:36.455Z,9.1
2016-11-17T05:43:36.415Z,9.17
2016-11-17T05:44:36.676Z,9.17
2016-11-17T05:45:36.337Z,9.2
2016-11-17T05:46:36.600Z,9.23
2016-11-17T05:47:36.563Z,9.18
2016-11-17T05:48:36.528Z,9.2
2016-11-17T05:49:36.484Z,9.11
2016-11-17T05:50:36.447Z,9.2
2016-11-17T05:51:36.113Z,9.21
2016-11-17T05:52:36.375Z,9.18
2016-11-17T05:53:36.334Z,9.2
2016-11-17T05:54:36.300Z,9.05
2016-11-17T05:55:35.961Z,9.15
2016-11-17T05:56:35.624Z,9.13
2016-11-17T05:57:35.885Z,9.17
2016-11-17T05:58:36.144Z,9.1
2016-11-17T05:59:36.112Z,9.14
2016-11-17T06:00:36.072Z,9.15
2016-11-17T06:01:36.039Z,9.11
2016-11-17T06:02:35.995Z,9.13
2016-11-17T06:03:35.954Z,9.08
2016-11-17T06:04:35.616Z,9.13
2016-11-17T06:05:35.879Z,9.14
2016-11-17T06:06:35.538Z,9.18
2016-11-17T06:07:35.812Z,9.11
2016-11-17T06:08:35.469Z,9.11
2016-11-17T06:09:35.733Z,9.08
2016-11-17T06:10:35.385Z,9.15
2016-11-17T06:11:35.655Z,9.13
2016-11-17T06:12:35.614Z,9.1
2016-11-17T06:13:35.578Z,9.13
2016-11-17T06:14:35.539Z,9.08
2016-11-17T06:15:35.499Z,9.11
2016-11-17T06:16:35.463Z,9.1
2016-11-17T06:17:35.422Z,9.11
2016-11-17T06:18:35.094Z,9.14
2016-11-17T06:19:35.349Z,9.1
2016-11-17T06:20:35.305Z,9.08
2016-11-17T06:21:34.674Z,9.02
2016-11-17T06:22:35.233Z,9.11
2016-11-17T06:23:35.198Z,9.08
2016-11-17T06:24:35.167Z,9.1
2016-11-17T06:25:34.823Z,9.15
2016-11-17T06:26:34.787Z,9.13
2016-11-17T06:27:35.045Z,9.13
2016-11-17T06:28:35.003Z,9.11
2016-11-17T06:29:34.371Z,9.11
2016-11-17T06:30:34.935Z,9.11
2016-11-17T06:31:34.593Z,9.14
2016-11-17T06:32:34.557Z,9.15
2016-11-17T06:33:34.516Z,9.11
2016-11-17T06:34:34.781Z,9.14
2016-11-17T06:35:34.777Z,9.14
2016-11-17T06:36:34.707Z,9.08
2016-11-17T06:37:34.705Z,9.13
2016-11-17T06:38:34.327Z,9.21
2016-11-17T06:39:34.293Z,9.11
2016-11-17T06:40:34.551Z,9.18
2016-11-17T06:41:34.210Z,9.14
2016-11-17T06:42:34.171Z,9.11
2016-11-17T06:43:33.835Z,9.17
2016-11-17T06:44:34.397Z,9.14
2016-11-17T06:45:34.056Z,9.15
2016-11-17T06:46:34.323Z,9.13
2016-11-17T06:47:33.986Z,9.24
2016-11-17T06:48:34.249Z,9.15
2016-11-17T06:49:33.907Z,9.15
2016-11-17T06:50:33.869Z,9.21
2016-11-17T06:51:34.136Z,9.21
2016-11-17T06:52:33.794Z,9.26
2016-11-17T06:53:34.056Z,9.18
2016-11-17T06:54:33.714Z,9.33
2016-11-17T06:55:33.988Z,9.31
2016-11-17T06:56:33.949Z,9.33
2016-11-17T06:57:33.905Z,9.29
2016-11-17T06:58:33.868Z,9.26
2016-11-17T06:59:33.830Z,9.33
2016-11-17T07:00:33.487Z,9.28
2016-11-17T07:01:33.751Z,9.29
2016-11-17T07:02:33.716Z,9.24
2016-11-17T07:03:33.676Z,9.29
2016-11-17T07:04:33.336Z,9.36
2016-11-17T07:05:33.604Z,9.38
2016-11-17T07:06:32.956Z,9.43
2016-11-17T07:07:33.223Z,9.4
2016-11-17T07:08:33.485Z,9.43
2016-11-17T07:09:33.159Z,9.39
2016-11-17T07:10:33.113Z,9.43
2016-11-17T07:11:33.072Z,9.42
2016-11-17T07:12:33.031Z,9.46
2016-11-17T07:13:32.693Z,9.4
2016-11-17T07:14:32.961Z,9.47
2016-11-17T07:15:32.920Z,9.48
2016-11-17T07:16:33.184Z,9.38
2016-11-17T07:17:33.149Z,9.46
2016-11-17T07:18:33.106Z,9.46
2016-11-17T07:19:33.071Z,9.54
2016-11-17T07:20:32.727Z,9.53
2016-11-17T07:21:32.690Z,9.54
2016-11-17T07:22:32.953Z,9.53
2016-11-17T07:23:32.611Z,9.57
2016-11-17T07:24:32.880Z,9.56
2016-11-17T07:25:32.841Z,9.54
2016-11-17T07:26:32.802Z,9.57
2016-11-17T07:27:32.162Z,9.56
2016-11-17T07:28:32.728Z,9.58
2016-11-17T07:29:32.387Z,9.64
2016-11-17T07:30:32.355Z,9.66
2016-11-17T07:31:32.627Z,9.66
2016-11-17T07:32:32.279Z,9.61
2016-11-17T07:33:32.537Z,9.66
2016-11-17T07:34:32.549Z,9.71
2016-11-17T07:35:32.465Z,9.65
2016-11-17T07:36:32.428Z,9.72
2016-11-17T07:37:32.086Z,9.74
2016-11-17T07:38:32.352Z,9.76
2016-11-17T07:39:32.315Z,9.71
2016-11-17T07:40:31.974Z,9.75
2016-11-17T07:41:32.237Z,9.79
2016-11-17T07:42:31.905Z,9.87
2016-11-17T07:43:32.166Z,9.86
2016-11-17T07:44:31.833Z,9.83
2016-11-17T07:45:31.787Z,9.93
2016-11-17T07:46:32.044Z,9.9
2016-11-17T07:47:32.010Z,9.86
2016-11-17T07:48:31.972Z,9.93
2016-11-17T07:49:31.939Z,9.99
2016-11-17T07:50:31.904Z,9.94
2016-11-17T07:51:31.860Z,9.86
2016-11-17T07:52:31.525Z,10.05
2016-11-17T07:53:31.478Z,9.89
2016-11-17T07:54:31.448Z,10.01
2016-11-17T07:55:31.707Z,10.01
2016-11-17T07:56:31.671Z,10.08
2016-11-17T07:57:31.331Z,9.99
2016-11-17T07:58:31.598Z,9.97
2016-11-17T07:59:31.561Z,10.08
2016-11-17T08:00:31.530Z,10.2
2016-11-17T08:01:30.882Z,10.17
2016-11-17T08:02:31.497Z,10.11
2016-11-17T08:03:31.107Z,10.15
2016-11-17T08:04:31.375Z,10.2
2016-11-17T08:05:31.336Z,10.2
2016-11-17T08:06:31.004Z,10.27
2016-11-17T08:07:31.280Z,10.3
2016-11-17T08:08:31.139Z,10.27
2016-11-17T08:09:31.186Z,10.3
2016-11-17T08:10:31.149Z,10.38
2016-11-17T08:11:31.107Z,10.48
2016-11-17T08:12:31.071Z,10.53
2016-11-17T08:13:31.037Z,10.53
2016-11-17T08:14:30.998Z,10.53
2016-11-17T08:15:30.960Z,10.59
2016-11-17T08:16:30.623Z,10.64
2016-11-17T08:17:30.887Z,10.81
2016-11-17T08:18:30.849Z,10.86
2016-11-17T08:19:30.809Z,10.92
2016-11-17T08:20:30.774Z,10.91
2016-11-17T08:21:30.456Z,10.92
2016-11-17T08:22:30.101Z,11
2016-11-17T08:23:30.665Z,11.03
2016-11-17T08:24:30.055Z,11.03
2016-11-17T08:25:30.591Z,11
2016-11-17T08:26:30.554Z,10.89
2016-11-17T08:27:30.519Z,10.89
2016-11-17T08:28:30.174Z,10.94
2016-11-17T08:29:30.142Z,10.92
2016-11-17T08:30:30.107Z,10.97
2016-11-17T08:31:30.077Z,11.03
2016-11-17T08:32:30.335Z,10.97
2016-11-17T08:33:29.999Z,11.04
2016-11-17T08:34:29.959Z,10.99
2016-11-17T08:35:29.919Z,11.09
2016-11-17T08:36:30.189Z,11.1
2016-11-17T08:37:30.150Z,11.15
2016-11-17T08:38:29.816Z,11.15
2016-11-17T08:39:29.775Z,11.22
2016-11-17T08:40:30.045Z,11.24
2016-11-17T08:41:29.702Z,11.24
2016-11-17T08:42:29.963Z,11.27
2016-11-17T08:43:29.929Z,11.28
2016-11-17T08:44:29.892Z,11.25
2016-11-17T08:45:29.551Z,11.32
2016-11-17T08:46:29.516Z,11.29
2016-11-17T08:47:29.786Z,11.22
2016-11-17T08:48:29.448Z,11.17
2016-11-17T08:49:29.712Z,11.19
2016-11-17T08:50:29.670Z,11.22
2016-11-17T08:51:29.374Z,11.22
2016-11-17T08:52:29.598Z,11.19
2016-11-17T08:53:29.263Z,11.18
2016-11-17T08:54:29.223Z,11.19
2016-11-17T08:55:29.189Z,11.22
2016-11-17T08:56:29.146Z,11.28
2016-11-17T08:57:29.412Z,11.24
2016-11-17T08:58:29.115Z,11.25
2016-11-17T08:59:29.043Z,11.29
2016-11-17T09:00:29.006Z,11.32
2016-11-17T09:01:28.671Z,11.33
2016-11-17T09:02:28.933Z,11.28
2016-11-17T09:03:29.197Z,11.42
2016-11-17T09:04:29.157Z,11.37
2016-11-17T09:05:28.817Z,11.46
2016-11-17T09:06:29.085Z,11.51
2016-11-17T09:07:28.749Z,11.49
2016-11-17T09:08:28.712Z,11.51
2016-11-17T09:09:28.371Z,11.55
2016-11-17T09:10:28.941Z,11.55
2016-11-17T09:11:28.604Z,11.51
2016-11-17T09:12:28.865Z,11.54
2016-11-17T09:13:28.830Z,11.46
2016-11-17T09:14:28.499Z,11.44
2016-11-17T09:15:28.754Z,11.46
2016-11-17T09:16:28.722Z,11.46
2016-11-17T09:17:28.388Z,11.49
2016-11-17T09:18:28.646Z,11.51
2016-11-17T09:19:28.311Z,11.46
2016-11-17T09:20:27.971Z,11.52
2016-11-17T09:21:28.539Z,11.58
2016-11-17T09:22:28.509Z,11.47
2016-11-17T09:23:28.161Z,11.54
2016-11-17T09:24:28.433Z,11.51
2016-11-17T09:25:28.091Z,11.57
2016-11-17T09:26:28.354Z,11.47
2016-11-17T09:27:28.319Z,11.44
2016-11-17T09:28:28.281Z,11.46
2016-11-17T09:29:28.246Z,11.46
2016-11-17T09:30:27.910Z,11.44
2016-11-17T09:31:27.883Z,11.29
2016-11-17T09:32:28.135Z,11.32
2016-11-17T09:33:27.801Z,11.32
2016-11-17T09:34:27.766Z,11.35
2016-11-17T09:35:28.030Z,11.27
2016-11-17T09:36:28.003Z,11.29
2016-11-17T09:37:27.652Z,11.24
2016-11-17T09:38:27.918Z,11.32
2016-11-17T09:39:27.887Z,11.29
2016-11-17T09:40:27.555Z,11.24
2016-11-17T09:41:27.205Z,11.24
2016-11-17T09:42:27.790Z,11.19
2016-11-17T09:43:27.444Z,11.27
2016-11-17T09:44:27.396Z,11.27
2016-11-17T09:45:27.662Z,11.21
2016-11-17T09:46:27.625Z,11.25
2016-11-17T09:47:27.589Z,11.17
2016-11-17T09:48:27.553Z,11.25
2016-11-17T09:49:27.220Z,11.28
2016-11-17T09:50:27.484Z,11.21
2016-11-17T09:51:27.142Z,11.29
2016-11-17T09:52:27.409Z,11.27
2016-11-17T09:53:27.371Z,11.22
2016-11-17T09:54:27.032Z,11.24
2016-11-17T09:55:27.298Z,11.17
2016-11-17T09:56:26.956Z,11.19
2016-11-17T09:57:26.924Z,11.19
2016-11-17T09:58:27.192Z,11.21
2016-11-17T09:59:27.152Z,11.24
2016-11-17T10:00:26.811Z,11.17
2016-11-17T10:01:27.083Z,11.29
2016-11-17T10:02:26.738Z,11.27
2016-11-17T10:03:27.484Z,11.28
2016-11-17T10:04:26.988Z,11.35
2016-11-17T10:05:26.947Z,11.29
2016-11-17T10:06:26.901Z,11.35
2016-11-17T10:07:26.866Z,11.33
2016-11-17T10:08:26.826Z,11.37
2016-11-17T10:09:26.495Z,11.46
2016-11-17T10:10:26.765Z,11.35
2016-11-17T10:11:26.719Z,11.33
2016-11-17T10:12:26.678Z,11.35
2016-11-17T10:13:26.343Z,11.33
2016-11-17T10:14:26.607Z,11.32
2016-11-17T10:15:26.574Z,11.29
2016-11-17T10:16:26.237Z,11.32
2016-11-17T10:17:26.540Z,11.33
2016-11-17T10:18:26.457Z,11.27
2016-11-17T10:19:26.120Z,11.29
2016-11-17T10:20:26.394Z,11.29
2016-11-17T10:21:26.345Z,11.25
2016-11-17T10:22:26.310Z,11.29
2016-11-17T10:23:26.279Z,11.21
2016-11-17T10:24:25.938Z,11.24
2016-11-17T10:25:25.910Z,11.15
2016-11-17T10:26:26.178Z,11.18
2016-11-17T10:27:26.128Z,11.09
2016-11-17T10:28:26.094Z,11.11
2016-11-17T10:29:25.751Z,11.06
2016-11-17T10:30:26.027Z,11.09
2016-11-17T10:31:25.993Z,11.14
2016-11-17T10:32:25.645Z,11.15
2016-11-17T10:33:25.604Z,11.27
2016-11-17T10:34:25.878Z,11.27
2016-11-17T10:35:25.836Z,11.29
2016-11-17T10:36:25.800Z,11.43
2016-11-17T10:37:25.768Z,11.51
2016-11-17T10:38:25.762Z,11.55
2016-11-17T10:39:25.397Z,11.65
2016-11-17T10:40:25.656Z,11.62
2016-11-17T10:41:25.620Z,11.7
2016-11-17T10:42:25.590Z,11.72
2016-11-17T10:43:25.547Z,11.86
2016-11-17T10:44:24.904Z,11.85
2016-11-17T10:45:24.870Z,11.91
2016-11-17T10:46:25.143Z,11.96
2016-11-17T10:47:25.399Z,12.07
2016-11-17T10:48:25.364Z,12.05
2016-11-17T10:49:25.335Z,12.04
2016-11-17T10:50:24.990Z,12.09
2016-11-17T10:51:25.257Z,12.14
2016-11-17T10:52:25.223Z,12.12
2016-11-17T10:53:25.182Z,12.17
2016-11-17T10:54:24.847Z,12.2
2016-11-17T10:55:24.818Z,12.21
2016-11-17T10:56:25.072Z,12.31
2016-11-17T10:57:25.038Z,12.28
2016-11-17T10:58:24.399Z,12.31
2016-11-17T10:59:24.965Z,12.2
2016-11-17T11:00:24.933Z,12.23
2016-11-17T11:01:24.894Z,12.19
2016-11-17T11:02:24.555Z,12.2
2016-11-17T11:03:24.827Z,12.19
2016-11-17T11:04:24.212Z,12.24
2016-11-17T11:05:24.763Z,12.24
2016-11-17T11:06:24.718Z,12.17
2016-11-17T11:07:24.379Z,12.2
2016-11-17T11:08:24.647Z,12.19
2016-11-17T11:09:24.617Z,12.21
2016-11-17T11:10:24.274Z,12.28
2016-11-17T11:11:24.574Z,12.21
2016-11-17T11:12:24.201Z,12.31
2016-11-17T11:13:24.469Z,12.31
2016-11-17T11:14:24.431Z,12.28
2016-11-17T11:15:24.397Z,12.31
2016-11-17T11:16:24.056Z,12.39
2016-11-17T11:17:24.325Z,12.45
2016-11-17T11:18:24.289Z,12.29
2016-11-17T11:19:23.951Z,12.31
2016-11-17T11:20:24.217Z,12.41
2016-11-17T11:21:23.881Z,12.49
2016-11-17T11:22:24.151Z,12.52
2016-11-17T11:23:24.111Z,12.62
2016-11-17T11:24:24.076Z,12.68
2016-11-17T11:25:24.043Z,12.67
2016-11-17T11:26:23.700Z,12.85
2016-11-17T11:27:23.971Z,12.93
2016-11-17T11:28:23.968Z,12.92
2016-11-17T11:29:23.899Z,12.83
2016-11-17T11:30:23.861Z,13
2016-11-17T11:31:23.530Z,13.04
2016-11-17T11:32:23.800Z,12.87
2016-11-17T11:33:23.455Z,12.92
2016-11-17T11:34:23.725Z,12.85
2016-11-17T11:35:23.085Z,12.87
2016-11-17T11:36:23.651Z,12.86
2016-11-17T11:37:23.317Z,13.03
2016-11-17T11:38:22.975Z,12.97
2016-11-17T11:39:23.546Z,13.05
2016-11-17T11:40:23.218Z,13.1
2016-11-17T11:41:23.176Z,13
2016-11-17T11:42:23.146Z,13.05
2016-11-17T11:43:23.408Z,13.1
2016-11-17T11:44:23.073Z,13.1
2016-11-17T11:45:23.032Z,13.07
2016-11-17T11:46:22.696Z,13.14
2016-11-17T11:47:22.964Z,13.03
2016-11-17T11:48:23.234Z,13.01
2016-11-17T11:49:23.200Z,13
2016-11-17T11:50:22.860Z,13.12
2016-11-17T11:51:23.122Z,13.12
2016-11-17T11:52:23.088Z,13.1
2016-11-17T11:53:23.051Z,13.08
2016-11-17T11:54:23.024Z,13.12
2016-11-17T11:55:22.979Z,13.2
2016-11-17T11:56:22.646Z,13.23
2016-11-17T11:57:22.914Z,13.2
2016-11-17T11:58:22.585Z,13.17
2016-11-17T11:59:22.844Z,13.14
2016-11-17T12:00:22.808Z,13.1
2016-11-17T12:01:23.140Z,13.07
2016-11-17T12:02:22.440Z,13.05
2016-11-17T12:03:22.709Z,13.03
2016-11-17T12:04:22.370Z,13.04
2016-11-17T12:05:22.337Z,13.04
2016-11-17T12:06:22.603Z,13.03
2016-11-17T12:07:22.569Z,13.23
2016-11-17T12:08:22.533Z,13.23
2016-11-17T12:09:22.494Z,13.38
2016-11-17T12:10:22.460Z,13.41
2016-11-17T12:11:22.430Z,13.44
2016-11-17T12:12:21.787Z,13.51
2016-11-17T12:13:22.356Z,13.42
2016-11-17T12:14:22.019Z,13.42
2016-11-17T12:15:22.297Z,13.41
2016-11-17T12:16:21.955Z,13.36
2016-11-17T12:17:22.217Z,13.28
2016-11-17T12:18:21.883Z,13.17
2016-11-17T12:19:22.146Z,13.17
2016-11-17T12:20:21.812Z,13.22
2016-11-17T12:21:21.778Z,13.17
2016-11-17T12:22:22.043Z,13.2
2016-11-17T12:23:21.705Z,13.26
2016-11-17T12:24:21.979Z,13.28
2016-11-17T12:25:21.664Z,13.26
2016-11-17T12:26:21.600Z,13.23
2016-11-17T12:27:21.566Z,13.23
2016-11-17T12:28:21.834Z,13.11
2016-11-17T12:29:21.798Z,13.07
2016-11-17T12:30:21.764Z,12.97
2016-11-17T12:31:21.427Z,13.03
2016-11-17T12:32:21.693Z,13.08
2016-11-17T12:33:21.365Z,13.04
2016-11-17T12:34:21.321Z,13.05
2016-11-17T12:35:21.295Z,13.03
2016-11-17T12:36:21.252Z,12.96
2016-11-17T12:37:21.519Z,12.97
2016-11-17T12:38:21.489Z,12.89
2016-11-17T12:39:21.146Z,12.96
2016-11-17T12:40:21.113Z,12.97
2016-11-17T12:41:21.081Z,13.05
2016-11-17T12:42:21.349Z,13.03
2016-11-17T12:43:21.309Z,12.89
2016-11-17T12:44:21.270Z,12.89
2016-11-17T12:45:20.935Z,12.78
2016-11-17T12:46:21.203Z,12.74
2016-11-17T12:47:21.165Z,12.77
2016-11-17T12:48:21.131Z,12.77
2016-11-17T12:49:21.102Z,12.74
2016-11-17T12:50:20.764Z,12.75
2016-11-17T12:51:21.026Z,12.82
2016-11-17T12:52:20.994Z,12.78
2016-11-17T12:53:20.963Z,12.74
2016-11-17T12:54:20.924Z,12.77
2016-11-17T12:55:20.885Z,12.75
2016-11-17T12:56:20.553Z,12.79
2016-11-17T12:57:20.814Z,12.78
2016-11-17T12:58:20.798Z,12.77
2016-11-17T12:59:20.745Z,12.78
2016-11-17T13:00:20.414Z,12.79
2016-11-17T13:01:20.070Z,12.85
2016-11-17T13:02:20.339Z,12.78
2016-11-17T13:03:20.605Z,12.83
2016-11-17T13:04:20.569Z,12.79
2016-11-17T13:05:20.229Z,12.83
2016-11-17T13:06:20.501Z,12.86
2016-11-17T13:07:20.467Z,12.86
2016-11-17T13:08:20.429Z,12.83
2016-11-17T13:09:19.787Z,12.89
2016-11-17T13:10:20.357Z,13.01